Time;durP1;ratioP1;P1;durP2;ratioP2;P2;SDS_P1;SDS_P2;PMS_P1;PMS_P2;Temp;Humidity;BMP_temperature;BMP_pressure;BME280_temperature;BME280_humidity;BME280_pressure;Samples;Min_cycle;Max_cycle;Signal;HPM_P1;HPM_P2
2022/10/15 00:01:14;;;;;;;49.57;28.27;;;;;;;13.29;97.32;99478.66;5010559;28;20985;-82
2022/10/15 00:03:42;;;;;;;49.53;29.10;;;;;;;13.26;97.42;99470.13;5007350;28;20784;-82
2022/10/15 00:06:10;;;;;;;46.03;27.87;;;;;;;13.23;97.42;99479.38;5006694;28;20806;-82
2022/10/15 00:08:37;;;;;;;50.07;28.37;;;;;;;13.14;97.11;99470.56;5005022;28;20479;-81
2022/10/15 00:11:06;;;;;;;52.47;31.90;;;;;;;13.09;97.51;99483.66;5004046;28;20503;-81
2022/10/15 00:13:34;;;;;;;46.00;27.70;;;;;;;13.06;97.65;99483.19;5004051;28;20456;-81
2022/10/15 00:16:01;;;;;;;47.80;28.50;;;;;;;13.07;97.46;99479.47;5004698;28;20476;-82
2022/10/15 00:18:28;;;;;;;51.00;29.90;;;;;;;13.08;97.78;99481.16;5016138;28;20475;-82
2022/10/15 00:20:55;;;;;;;48.90;28.27;;;;;;;13.10;97.62;99474.56;5004148;28;20480;-82
2022/10/15 00:23:21;;;;;;;51.53;29.20;;;;;;;13.18;98.06;99471.03;5004332;28;20514;-82
2022/10/15 00:25:48;;;;;;;50.70;29.80;;;;;;;13.26;98.52;99467.44;5003792;28;20578;-82
2022/10/15 00:28:15;;;;;;;59.17;31.67;;;;;;;13.26;98.76;99472.81;5004307;28;20476;-82
2022/10/15 00:30:43;;;;;;;55.40;29.50;;;;;;;13.24;98.68;99481.03;5004121;28;20476;-82
2022/10/15 00:33:09;;;;;;;58.00;30.20;;;;;;;13.22;98.62;99461.59;5004426;28;21027;-84
2022/10/15 00:35:36;;;;;;;55.93;30.03;;;;;;;13.25;98.60;99465.78;5003344;28;20511;-83
2022/10/15 00:38:02;;;;;;;55.23;30.97;;;;;;;13.21;98.39;99467.16;5004353;28;20437;-83
2022/10/15 00:40:29;;;;;;;62.10;30.00;;;;;;;13.19;98.46;99473.53;5003854;28;20495;-82
2022/10/15 00:42:56;;;;;;;65.60;31.30;;;;;;;13.21;98.65;99472.50;5004162;28;20480;-82
2022/10/15 00:45:22;;;;;;;66.67;31.63;;;;;;;13.27;98.52;99469.97;5003339;28;20781;-82
2022/10/15 00:47:52;;;;;;;65.30;31.93;;;;;;;13.29;98.43;99470.59;5003998;28;20527;-82
2022/10/15 00:50:20;;;;;;;63.90;32.87;;;;;;;13.27;98.68;99469.13;5003240;28;20456;-82
2022/10/15 00:52:57;;;;;;;65.93;32.10;;;;;;;13.29;98.94;99464.41;5003872;28;20459;-82
2022/10/15 00:55:28;;;;;;;59.60;31.33;;;;;;;13.37;99.11;99475.16;5002997;28;20582;-83
2022/10/15 00:57:55;;;;;;;63.50;31.53;;;;;;;13.36;99.12;99470.78;5004067;28;20469;-83
2022/10/15 01:00:22;;;;;;;62.50;29.27;;;;;;;13.43;99.12;99469.03;5004146;28;20464;-83
2022/10/15 01:02:50;;;;;;;62.90;32.30;;;;;;;13.53;98.97;99469.66;5016919;28;20466;-83
2022/10/15 01:05:17;;;;;;;63.20;31.40;;;;;;;13.54;98.89;99465.09;5008829;28;20898;-81
2022/10/15 01:07:44;;;;;;;64.07;33.30;;;;;;;13.58;99.01;99468.28;5023195;28;20478;-82
2022/10/15 01:10:11;;;;;;;55.13;28.47;;;;;;;13.59;98.57;99464.56;5018382;28;20503;-82
2022/10/15 01:12:53;;;;;;;61.90;31.20;;;;;;;13.64;99.13;99467.56;5007417;28;20471;-82
2022/10/15 01:15:23;;;;;;;58.53;30.33;;;;;;;13.72;98.91;99467.50;5002671;28;20483;-82
2022/10/15 01:17:54;;;;;;;66.77;32.50;;;;;;;13.66;98.74;99468.22;5008739;28;20440;-81
2022/10/15 01:20:37;;;;;;;63.80;30.30;;;;;;;13.60;98.61;99463.56;5009093;28;20459;-82
2022/10/15 01:23:25;;;;;;;53.97;28.10;;;;;;;13.54;98.62;99457.91;5019131;28;20953;-83
2022/10/15 01:25:59;;;;;;;68.90;31.97;;;;;;;13.58;98.71;99458.38;5000902;28;20478;-83
2022/10/15 01:28:37;;;;;;;59.90;30.27;;;;;;;13.56;98.58;99455.88;5002922;28;20456;-82
2022/10/15 01:31:11;;;;;;;54.23;29.70;;;;;;;13.53;98.23;99453.53;5002532;28;20502;-85
2022/10/15 01:33:43;;;;;;;53.17;28.40;;;;;;;13.52;97.78;99451.88;5003091;28;20472;-84
2022/10/15 01:36:16;;;;;;;48.07;26.60;;;;;;;13.43;97.56;99457.47;5003840;28;20571;-84
2022/10/15 01:38:51;;;;;;;57.67;29.80;;;;;;;13.42;97.99;99450.44;5003426;28;20495;-84
2022/10/15 01:41:22;;;;;;;50.87;27.70;;;;;;;13.40;97.85;99450.59;5015002;28;20542;-85
2022/10/15 01:43:54;;;;;;;50.60;29.10;;;;;;;13.42;97.62;99453.97;5020530;28;20494;-85
2022/10/15 01:46:27;;;;;;;53.13;27.60;;;;;;;13.43;98.01;99455.63;5012868;28;20488;-85
2022/10/15 01:48:55;;;;;;;56.80;28.20;;;;;;;13.44;98.23;99457.31;5002468;28;20479;-85
2022/10/15 01:51:23;;;;;;;54.43;28.30;;;;;;;13.49;97.90;99454.91;5002111;28;20482;-84
2022/10/15 01:53:50;;;;;;;57.93;31.17;;;;;;;13.55;98.06;99451.50;5002551;28;20464;-85
2022/10/15 01:56:21;;;;;;;59.40;30.10;;;;;;;13.67;97.64;99451.91;5002033;28;20503;-85
2022/10/15 01:58:49;;;;;;;60.73;31.60;;;;;;;13.69;97.54;99449.06;5002260;28;20480;-84
2022/10/15 02:01:16;;;;;;;61.10;31.63;;;;;;;13.68;97.52;99429.44;5002334;28;20515;-84
2022/10/15 02:03:48;;;;;;;51.83;27.40;;;;;;;13.63;97.59;99444.41;5002205;28;20476;-84
2022/10/15 02:06:20;;;;;;;48.20;25.33;;;;;;;13.58;97.57;99434.22;5002140;28;20479;-84
2022/10/15 02:08:56;;;;;;;48.53;26.90;;;;;;;13.53;97.68;99426.69;5002249;28;20488;-85
2022/10/15 02:11:23;;;;;;;52.20;25.80;;;;;;;13.47;97.57;99446.22;5002169;28;20482;-85
2022/10/15 02:13:52;;;;;;;52.57;25.77;;;;;;;13.41;97.41;99438.84;5001923;28;20464;-85
2022/10/15 02:16:23;;;;;;;67.40;31.27;;;;;;;13.37;97.54;99430.31;5002232;28;20590;-85
2022/10/15 02:18:57;;;;;;;59.20;29.37;;;;;;;13.25;97.98;99434.41;5002523;28;20459;-85
2022/10/15 02:21:29;;;;;;;50.60;26.03;;;;;;;13.34;97.61;99433.38;5002249;28;20472;-85
2022/10/15 02:23:58;;;;;;;51.60;27.37;;;;;;;13.22;97.47;99429.38;5003117;28;20507;-85
2022/10/15 02:26:28;;;;;;;56.00;28.07;;;;;;;13.17;97.00;99424.53;5002689;28;20512;-85
2022/10/15 02:28:56;;;;;;;63.63;30.20;;;;;;;13.08;97.31;99422.13;5002397;28;20544;-84
2022/10/15 02:31:24;;;;;;;60.00;28.77;;;;;;;12.96;97.94;99427.03;5002101;28;20523;-85
2022/10/15 02:33:55;;;;;;;63.30;30.23;;;;;;;13.00;98.18;99431.03;5002975;28;20546;-85
2022/10/15 02:36:22;;;;;;;66.73;29.83;;;;;;;13.10;98.26;99423.59;5002379;28;20479;-85
2022/10/15 02:38:50;;;;;;;70.13;35.10;;;;;;;13.17;98.31;99431.78;5003103;28;20503;-85
2022/10/15 02:41:17;;;;;;;67.83;34.10;;;;;;;13.27;98.56;99423.50;5002413;28;20479;-85
2022/10/15 02:43:43;;;;;;;62.50;31.70;;;;;;;13.25;98.51;99422.84;5002412;28;20476;-84
2022/10/15 02:46:11;;;;;;;67.67;33.93;;;;;;;13.21;98.59;99425.06;5001977;28;20595;-85
2022/10/15 02:48:38;;;;;;;60.90;28.40;;;;;;;13.14;98.41;99418.69;5002655;28;20455;-84
2022/10/15 02:51:06;;;;;;;68.30;31.27;;;;;;;13.04;98.34;99421.63;5002030;28;20483;-84
2022/10/15 02:53:33;;;;;;;72.40;32.60;;;;;;;12.98;98.18;99416.97;5001726;28;20482;-84
2022/10/15 02:56:00;;;;;;;66.97;30.40;;;;;;;12.94;98.24;99426.38;5002342;28;20484;-84
2022/10/15 02:58:28;;;;;;;64.93;30.73;;;;;;;12.86;98.00;99415.69;5001602;28;21068;-83
2022/10/15 03:00:54;;;;;;;63.67;30.50;;;;;;;12.84;98.24;99412.34;5003224;28;20479;-84
2022/10/15 03:03:21;;;;;;;71.20;31.33;;;;;;;12.89;98.43;99420.72;5005461;28;20471;-83
2022/10/15 03:05:50;;;;;;;76.57;34.20;;;;;;;12.93;98.36;99430.06;5019093;28;20505;-83
2022/10/15 03:08:18;;;;;;;73.30;30.97;;;;;;;12.94;98.70;99424.53;5009529;28;20555;-83
2022/10/15 03:10:45;;;;;;;75.23;34.37;;;;;;;12.94;98.82;99431.75;5012303;28;20942;-83
2022/10/15 03:13:12;;;;;;;77.67;34.53;;;;;;;13.06;99.64;99430.34;5020175;28;20595;-83
2022/10/15 03:15:38;;;;;;;75.17;33.90;;;;;;;13.12;100.00;99432.31;5010998;28;20535;-83
2022/10/15 03:18:05;;;;;;;86.70;35.90;;;;;;;13.17;100.00;99435.28;5007426;28;20483;-82
2022/10/15 03:20:32;;;;;;;72.77;34.53;;;;;;;13.11;99.81;99435.19;5003953;28;20479;-82
2022/10/15 03:22:58;;;;;;;79.13;34.93;;;;;;;13.16;100.00;99432.81;5001639;28;20795;-82
2022/10/15 03:25:26;;;;;;;82.83;36.60;;;;;;;13.45;100.00;99432.09;5010717;28;20447;-82
2022/10/15 03:27:53;;;;;;;88.67;36.73;;;;;;;13.37;99.69;99430.31;5004080;28;20436;-82
2022/10/15 03:30:20;;;;;;;83.33;36.17;;;;;;;13.39;99.60;99422.09;5000639;28;20488;-82
2022/10/15 03:32:47;;;;;;;78.03;34.23;;;;;;;13.28;99.36;99423.31;5001407;28;20448;-82
2022/10/15 03:35:13;;;;;;;89.33;36.00;;;;;;;13.15;99.33;99429.25;5004679;28;20510;-82
2022/10/15 03:37:40;;;;;;;89.57;36.67;;;;;;;13.08;99.49;99428.31;5005252;28;20452;-82
2022/10/15 03:40:08;;;;;;;86.47;35.80;;;;;;;13.08;99.69;99422.94;5004799;28;20515;-83
2022/10/15 03:42:36;;;;;;;83.13;35.57;;;;;;;13.08;99.15;99425.63;5005092;28;20460;-82
2022/10/15 03:45:03;;;;;;;89.27;37.40;;;;;;;13.10;99.24;99414.72;5004801;28;20547;-82
2022/10/15 03:47:30;;;;;;;89.60;35.50;;;;;;;13.00;99.75;99414.94;5004064;28;20545;-82
2022/10/15 03:49:56;;;;;;;83.53;36.80;;;;;;;13.04;99.88;99410.91;5004585;28;20448;-82
2022/10/15 03:52:23;;;;;;;91.00;37.80;;;;;;;13.05;99.87;99411.72;5004307;28;20479;-83
2022/10/15 03:54:49;;;;;;;91.93;37.50;;;;;;;12.95;99.95;99411.94;5004633;28;20491;-82
2022/10/15 03:57:16;;;;;;;93.40;38.87;;;;;;;12.91;100.00;99418.69;5004268;28;20498;-82
2022/10/15 03:59:44;;;;;;;90.13;37.00;;;;;;;12.94;100.00;99411.13;5004035;28;20556;-82
2022/10/15 04:02:11;;;;;;;87.57;36.63;;;;;;;12.92;100.00;99412.31;5004499;28;20511;-82
2022/10/15 04:04:37;;;;;;;84.60;37.43;;;;;;;13.00;100.00;99412.25;5004522;28;20462;-81
2022/10/15 04:07:04;;;;;;;86.97;38.63;;;;;;;13.00;100.00;99417.63;5003856;28;20978;-82
2022/10/15 04:09:31;;;;;;;80.87;39.13;;;;;;;12.93;100.00;99422.88;5004853;28;20464;-82
2022/10/15 04:11:57;;;;;;;86.93;37.23;;;;;;;12.94;100.00;99423.69;5003943;28;20494;-82
2022/10/15 04:14:24;;;;;;;84.63;36.87;;;;;;;13.00;100.00;99413.09;5003808;28;20555;-82
2022/10/15 04:16:52;;;;;;;90.07;38.60;;;;;;;12.94;100.00;99421.84;5003595;28;20558;-83
2022/10/15 04:19:19;;;;;;;102.00;39.50;;;;;;;12.93;99.97;99422.88;5010995;28;20467;-85
2022/10/15 04:21:45;;;;;;;86.50;38.57;;;;;;;12.98;100.00;99419.63;5009105;28;20519;-85
2022/10/15 04:24:12;;;;;;;85.23;36.37;;;;;;;12.98;100.00;99414.28;5004441;28;20458;-85
2022/10/15 04:26:39;;;;;;;94.80;38.73;;;;;;;12.86;100.00;99415.69;5004124;28;21208;-85
2022/10/15 04:29:05;;;;;;;93.10;39.60;;;;;;;12.89;100.00;99418.03;5004548;28;20985;-85
2022/10/15 04:31:32;;;;;;;88.00;36.30;;;;;;;12.89;99.87;99404.63;5004972;28;20534;-85
2022/10/15 04:34:00;;;;;;;90.17;39.10;;;;;;;12.87;99.54;99412.00;5004291;28;20463;-86
2022/10/15 04:36:27;;;;;;;92.10;39.10;;;;;;;12.86;99.71;99413.84;4984424;28;20942;-86
2022/10/15 04:38:53;;;;;;;86.77;35.97;;;;;;;12.85;99.29;99414.03;4985236;28;20540;-87
2022/10/15 04:41:20;;;;;;;80.70;36.50;;;;;;;12.80;99.29;99411.88;4985026;28;20643;-86
2022/10/15 04:43:47;;;;;;;83.43;37.07;;;;;;;12.80;99.03;99409.19;5006953;28;20965;-86
2022/10/15 04:46:14;;;;;;;83.67;37.23;;;;;;;12.84;98.90;99413.19;5003299;28;20504;-85
2022/10/15 04:48:43;;;;;;;86.90;37.23;;;;;;;12.68;99.29;99414.09;5003474;28;20458;-83
2022/10/15 04:51:12;;;;;;;79.03;34.67;;;;;;;12.60;99.20;99408.75;5003116;28;20507;-83
2022/10/15 04:53:39;;;;;;;91.13;36.67;;;;;;;12.58;99.45;99416.16;5003441;28;20480;-83
2022/10/15 04:56:07;;;;;;;83.50;37.03;;;;;;;12.54;99.64;99425.56;5003185;28;20583;-86
2022/10/15 04:58:35;;;;;;;80.23;36.90;;;;;;;12.41;99.19;99420.75;5003342;28;20508;-86
2022/10/15 05:01:02;;;;;;;87.07;39.40;;;;;;;12.44;99.62;99418.53;5002579;28;20548;-86
2022/10/15 05:03:29;;;;;;;90.23;37.67;;;;;;;12.44;99.51;99418.53;5004275;28;20252;-86
2022/10/15 05:06:00;;;;;;;92.00;38.83;;;;;;;12.39;99.58;99420.06;5003567;28;20518;-86
2022/10/15 05:08:28;;;;;;;94.80;37.90;;;;;;;12.27;99.86;99422.28;5003992;28;20527;-86
2022/10/15 05:10:55;;;;;;;96.50;39.07;;;;;;;12.35;100.00;99435.66;5003770;28;20475;-85
2022/10/15 05:13:21;;;;;;;105.83;39.00;;;;;;;12.44;100.00;99431.94;5003190;28;20447;-85
2022/10/15 05:15:48;;;;;;;96.20;38.60;;;;;;;12.54;100.00;99433.63;5003568;28;20507;-85
2022/10/15 05:18:15;;;;;;;116.80;41.10;;;;;;;12.67;100.00;99439.22;5003406;28;20447;-85
2022/10/15 05:20:41;;;;;;;108.30;41.90;;;;;;;12.73;100.00;99432.34;5003626;28;20478;-86
2022/10/15 05:23:08;;;;;;;122.93;44.00;;;;;;;12.65;100.00;99433.22;5004149;28;20446;-86
2022/10/15 05:25:36;;;;;;;107.30;41.97;;;;;;;12.75;100.00;99436.53;5003323;28;20491;-85
2022/10/15 05:28:03;;;;;;;124.17;42.90;;;;;;;12.74;100.00;99439.38;5003897;28;20508;-86
2022/10/15 05:30:29;;;;;;;107.00;41.97;;;;;;;12.84;100.00;99439.19;5002706;28;20531;-85
2022/10/15 05:32:56;;;;;;;107.93;39.53;;;;;;;12.81;100.00;99443.03;5003851;28;20499;-85
2022/10/15 05:35:23;;;;;;;117.17;43.43;;;;;;;12.87;100.00;99438.84;5003096;28;20475;-84
2022/10/15 05:37:50;;;;;;;111.50;41.20;;;;;;;12.87;100.00;99436.97;5003274;28;20518;-84
2022/10/15 05:40:17;;;;;;;105.80;41.50;;;;;;;12.87;100.00;99442.34;5002911;28;20476;-85
2022/10/15 05:42:45;;;;;;;121.33;45.07;;;;;;;12.98;100.00;99443.78;5003900;28;20443;-85
2022/10/15 05:45:11;;;;;;;118.43;45.77;;;;;;;13.09;100.00;99437.19;5002424;28;20479;-85
2022/10/15 05:47:38;;;;;;;127.87;45.50;;;;;;;12.95;100.00;99438.78;5015589;28;20515;-82
2022/10/15 05:50:05;;;;;;;124.67;44.87;;;;;;;12.96;100.00;99438.59;5007637;28;20945;-82
2022/10/15 05:52:32;;;;;;;112.43;46.40;;;;;;;13.04;100.00;99437.72;5007816;28;20486;-82
2022/10/15 05:54:59;;;;;;;99.50;44.13;;;;;;;13.06;100.00;99435.69;5007897;28;20479;-84
2022/10/15 05:57:25;;;;;;;109.40;43.10;;;;;;;13.05;100.00;99434.00;5001516;28;20515;-84
2022/10/15 05:59:53;;;;;;;104.17;44.57;;;;;;;13.18;100.00;99436.97;5002198;28;20491;-84
2022/10/15 06:02:20;;;;;;;102.90;40.80;;;;;;;13.21;99.57;99443.00;5002654;28;20475;-84
2022/10/15 06:04:47;;;;;;;111.33;42.80;;;;;;;13.18;99.71;99444.19;5002542;28;20561;-84
2022/10/15 06:07:14;;;;;;;121.67;45.33;;;;;;;13.17;100.00;99442.50;5001901;28;20520;-84
2022/10/15 06:09:41;;;;;;;119.23;44.63;;;;;;;13.09;100.00;99442.53;5002781;28;20442;-83
2022/10/15 06:12:08;;;;;;;123.13;45.90;;;;;;;13.12;100.00;99451.09;5008371;28;20476;-81
2022/10/15 06:14:34;;;;;;;119.97;46.53;;;;;;;13.11;100.00;99453.97;5002470;28;20547;-81
2022/10/15 06:17:03;;;;;;;133.97;48.33;;;;;;;13.46;100.00;99457.94;5008716;28;20572;-81
2022/10/15 06:19:29;;;;;;;114.83;44.03;;;;;;;13.63;99.63;99455.16;5002959;28;20459;-81
2022/10/15 06:21:56;;;;;;;124.70;41.77;;;;;;;13.82;99.09;99451.13;5002532;28;20510;-81
2022/10/15 06:24:23;;;;;;;125.43;46.90;;;;;;;13.70;98.13;99451.56;5012898;28;20494;-83
2022/10/15 06:26:50;;;;;;;125.70;45.20;;;;;;;13.67;97.56;99451.09;5006123;28;20531;-82
2022/10/15 06:29:16;;;;;;;131.20;45.83;;;;;;;13.57;97.39;99451.31;5001996;28;20476;-83
2022/10/15 06:31:43;;;;;;;115.63;46.90;;;;;;;13.58;97.40;99457.56;5004070;28;20515;-82
2022/10/15 06:34:11;;;;;;;122.70;45.67;;;;;;;13.60;97.37;99464.41;5012295;28;20480;-83
2022/10/15 06:36:38;;;;;;;110.77;44.57;;;;;;;13.60;97.39;99469.78;5002061;28;20550;-83
2022/10/15 06:39:04;;;;;;;130.77;45.23;;;;;;;13.59;97.48;99469.94;5004095;28;20468;-83
2022/10/15 06:41:31;;;;;;;116.77;43.13;;;;;;;13.71;97.42;99474.72;5002651;28;20479;-81
2022/10/15 06:43:57;;;;;;;125.57;46.53;;;;;;;13.66;97.30;99478.94;5005732;28;20460;-83
2022/10/15 06:46:24;;;;;;;109.67;40.83;;;;;;;13.82;97.46;99476.16;5001983;28;20476;-83
2022/10/15 06:48:51;;;;;;;127.10;46.00;;;;;;;13.89;96.77;99477.09;5006109;28;20467;-83
2022/10/15 06:51:19;;;;;;;129.07;45.67;;;;;;;13.91;97.11;99484.97;5019824;28;20484;-82
2022/10/15 06:53:46;;;;;;;129.67;45.97;;;;;;;13.91;96.65;99484.97;5002710;28;20447;-81
2022/10/15 06:56:12;;;;;;;131.73;46.00;;;;;;;13.93;96.53;99489.13;5001523;28;20515;-81
2022/10/15 06:58:41;;;;;;;114.23;46.50;;;;;;;13.93;96.45;99488.31;5017178;28;20443;-80
2022/10/15 07:01:09;;;;;;;116.53;44.70;;;;;;;13.70;96.92;99489.16;5015594;28;20476;-80
2022/10/15 07:03:37;;;;;;;123.87;43.57;;;;;;;13.86;97.56;99496.25;5007353;28;20453;-80
2022/10/15 07:06:05;;;;;;;128.27;44.07;;;;;;;13.89;97.17;99487.03;5003836;28;20550;-81
2022/10/15 07:08:33;;;;;;;123.10;44.07;;;;;;;13.97;97.16;99486.94;5023894;28;20485;-80
2022/10/15 07:11:01;;;;;;;127.27;47.37;;;;;;;13.94;97.21;99501.56;5023160;28;20482;-85
2022/10/15 07:13:29;;;;;;;115.60;41.90;;;;;;;13.93;97.06;99494.50;5005770;28;20472;-85
2022/10/15 07:15:56;;;;;;;118.43;42.40;;;;;;;14.14;96.99;99484.94;5005711;28;20486;-86
2022/10/15 07:18:23;;;;;;;129.03;47.73;;;;;;;14.12;96.72;99500.41;5014057;28;20478;-85
2022/10/15 07:20:49;;;;;;;134.00;46.10;;;;;;;14.04;96.34;99495.09;5013978;28;20496;-81
2022/10/15 07:23:16;;;;;;;126.97;45.00;;;;;;;14.13;96.77;99499.41;5005614;28;20905;-80
2022/10/15 07:25:44;;;;;;;119.33;43.27;;;;;;;14.24;96.67;99495.44;5007816;28;20965;-80
2022/10/15 07:28:10;;;;;;;121.47;45.53;;;;;;;14.31;95.89;99489.13;5005981;28;20512;-79
2022/10/15 07:30:37;;;;;;;95.33;41.30;;;;;;;14.27;96.25;99495.91;5017557;28;20482;-78
2022/10/15 07:33:04;;;;;;;102.27;43.37;;;;;;;14.31;95.32;99486.44;5012261;28;20443;-78
2022/10/15 07:35:30;;;;;;;104.00;40.70;;;;;;;14.50;95.25;99498.50;5005103;28;20503;-78
2022/10/15 07:38:00;;;;;;;104.33;40.03;;;;;;;14.57;93.59;99501.31;5006050;28;20452;-78
2022/10/15 07:40:27;;;;;;;91.20;41.10;;;;;;;14.64;93.55;99509.50;5019343;28;20474;-78
2022/10/15 07:42:55;;;;;;;108.13;41.27;;;;;;;14.35;94.25;99503.03;5011591;28;20483;-80
2022/10/15 07:45:22;;;;;;;86.57;38.50;;;;;;;14.49;94.42;99499.56;5018216;28;20455;-80
2022/10/15 07:47:49;;;;;;;87.67;38.73;;;;;;;14.59;93.89;99499.28;5025627;28;20481;-79
2022/10/15 07:50:16;;;;;;;94.87;39.63;;;;;;;14.81;93.55;99497.53;5011944;28;20448;-80
2022/10/15 07:52:43;;;;;;;84.07;36.27;;;;;;;14.87;93.54;99506.72;5012299;28;20447;-80
2022/10/15 07:55:10;;;;;;;91.33;39.80;;;;;;;14.98;93.26;99514.31;5021983;28;20455;-80
2022/10/15 07:57:36;;;;;;;90.27;38.97;;;;;;;15.04;92.64;99512.72;5018122;28;20569;-80
2022/10/15 08:00:06;;;;;;;79.93;40.80;;;;;;;14.93;91.96;99507.81;5022442;28;20523;-80
2022/10/15 08:02:33;;;;;;;85.80;38.57;;;;;;;15.01;90.64;99508.53;5006198;28;20482;-80
2022/10/15 08:04:59;;;;;;;82.57;38.73;;;;;;;14.94;91.45;99502.25;5005844;28;20456;-81
2022/10/15 08:07:26;;;;;;;76.40;39.20;;;;;;;14.85;91.92;99504.19;5003338;28;20592;-80
2022/10/15 08:09:55;;;;;;;84.23;39.33;;;;;;;14.84;92.24;99505.25;5007842;28;20436;-79
2022/10/15 08:12:21;;;;;;;81.90;41.17;;;;;;;15.00;91.62;99504.19;5003894;28;20493;-80
2022/10/15 08:14:48;;;;;;;76.20;39.67;;;;;;;14.87;91.89;99501.31;5004407;28;20455;-80
2022/10/15 08:17:16;;;;;;;79.00;40.80;;;;;;;15.12;91.09;99501.88;5006616;28;20480;-81
2022/10/15 08:19:43;;;;;;;79.23;39.10;;;;;;;15.19;90.27;99494.69;5004665;28;20483;-80
2022/10/15 08:22:11;;;;;;;66.67;38.63;;;;;;;15.47;88.75;99493.13;5002415;28;20483;-80
2022/10/15 08:24:37;;;;;;;63.13;35.73;;;;;;;15.49;88.16;99486.53;4998309;28;20486;-80
2022/10/15 08:27:04;;;;;;;68.60;39.47;;;;;;;15.41;88.88;99486.63;5019685;28;20482;-81
2022/10/15 08:29:31;;;;;;;76.10;42.03;;;;;;;15.39;88.67;99486.00;5023404;28;20454;-80
2022/10/15 08:31:57;;;;;;;67.10;39.13;;;;;;;15.25;89.48;99490.41;5022903;28;20544;-80
2022/10/15 08:34:26;;;;;;;66.10;38.70;;;;;;;15.36;88.67;99476.47;5023372;28;20466;-80
2022/10/15 08:36:52;;;;;;;64.23;37.80;;;;;;;15.80;87.49;99480.03;5019086;28;20476;-79
2022/10/15 08:39:19;;;;;;;54.80;36.60;;;;;;;15.67;86.10;99480.69;5002839;28;20429;-80
2022/10/15 08:41:48;;;;;;;49.63;32.50;;;;;;;15.85;85.94;99479.41;5003470;28;20475;-81
2022/10/15 08:44:21;;;;;;;51.70;33.10;;;;;;;16.22;84.82;99474.75;5003542;28;20452;-79
2022/10/15 08:46:50;;;;;;;48.07;33.23;;;;;;;18.78;76.06;99476.78;4982676;28;20479;-80
2022/10/15 08:49:25;;;;;;;39.13;28.67;;;;;;;20.16;66.36;99477.31;4983991;28;20421;-80
2022/10/15 08:51:55;;;;;;;37.43;28.57;;;;;;;22.59;57.26;99465.44;4998919;28;20500;-80
2022/10/15 08:54:22;;;;;;;30.60;24.03;;;;;;;22.97;54.06;99466.78;5008242;28;20459;-81
2022/10/15 08:56:52;;;;;;;26.80;21.97;;;;;;;22.93;52.98;99461.00;5002637;28;20486;-82
2022/10/15 08:59:30;;;;;;;25.47;21.13;;;;;;;22.86;53.71;99468.47;5006504;28;20461;-79
2022/10/15 09:01:59;;;;;;;23.83;21.30;;;;;;;22.79;53.01;99470.47;5010764;28;20488;-80
2022/10/15 09:04:33;;;;;;;24.63;20.90;;;;;;;23.51;51.33;99466.50;5015808;28;20459;-81
2022/10/15 09:07:06;;;;;;;22.63;20.23;;;;;;;23.25;50.28;99459.72;4989317;28;20559;-80
2022/10/15 09:09:37;;;;;;;21.27;18.37;;;;;;;23.39;51.27;99465.72;5005151;28;20516;-80
2022/10/15 09:12:12;;;;;;;23.13;18.73;;;;;;;22.80;52.66;99466.69;5022681;28;20587;-80
2022/10/15 09:14:41;;;;;;;21.43;18.80;;;;;;;25.15;46.40;99469.00;5011788;28;20457;-80
2022/10/15 09:17:23;;;;;;;21.40;19.00;;;;;;;24.12;47.53;99463.19;5002686;28;20483;-80
2022/10/15 09:19:52;;;;;;;20.57;18.47;;;;;;;23.46;50.25;99455.47;5002961;28;20580;-80
2022/10/15 09:22:24;;;;;;;24.57;20.07;;;;;;;23.48;50.15;99470.53;5003171;28;21001;-81
2022/10/15 09:24:51;;;;;;;22.33;18.80;;;;;;;23.71;49.51;99460.56;5003010;28;20467;-80
2022/10/15 09:27:23;;;;;;;18.80;16.80;;;;;;;24.23;48.53;99460.38;5002673;28;20482;-80
2022/10/15 09:30:04;;;;;;;22.70;17.87;;;;;;;24.41;48.11;99466.63;5002405;28;20489;-80
2022/10/15 09:32:35;;;;;;;20.67;18.30;;;;;;;23.83;49.62;99463.25;5001155;28;20532;-80
2022/10/15 09:35:08;;;;;;;19.23;15.27;;;;;;;24.37;46.74;99462.72;5002579;28;20487;-80
2022/10/15 09:37:46;;;;;;;17.80;15.90;;;;;;;22.97;51.26;99464.06;5001819;28;20929;-80
2022/10/15 09:40:31;;;;;;;17.77;15.87;;;;;;;25.45;44.57;99464.97;5001433;28;20483;-79
2022/10/15 09:43:04;;;;;;;19.27;16.20;;;;;;;24.60;46.15;99454.34;5001905;28;20458;-81
2022/10/15 09:45:31;;;;;;;17.50;15.70;;;;;;;24.59;45.88;99460.88;5000881;28;20479;-80
2022/10/15 09:47:59;;;;;;;16.67;14.90;;;;;;;24.53;46.72;99456.41;5001874;28;20965;-80
2022/10/15 09:50:28;;;;;;;18.50;16.60;;;;;;;25.42;45.79;99456.44;5011907;28;20531;-80
2022/10/15 09:53:05;;;;;;;18.43;16.53;;;;;;;25.07;45.84;99460.38;5021903;28;20465;-80
2022/10/15 09:55:37;;;;;;;18.20;16.40;;;;;;;23.11;49.12;99456.47;5015243;28;20465;-81
2022/10/15 09:58:07;;;;;;;24.23;17.87;;;;;;;22.28;51.96;99455.75;5010968;28;20448;-80
2022/10/15 10:01:00;;;;;;;20.93;18.63;;;;;;;23.02;49.91;99464.16;5024825;28;20495;-80
2022/10/15 10:03:28;;;;;;;20.10;17.80;;;;;;;22.16;51.96;99459.25;5024144;28;20450;-80
2022/10/15 10:06:03;;;;;;;21.50;19.10;;;;;;;21.84;53.41;99457.91;5001413;28;20577;-81
2022/10/15 10:08:35;;;;;;;20.63;17.93;;;;;;;21.76;53.92;99456.38;5001331;28;20557;-80
2022/10/15 10:11:04;;;;;;;19.47;17.40;;;;;;;21.76;54.35;99456.38;4999447;28;20479;-79
2022/10/15 10:13:32;;;;;;;21.07;17.20;;;;;;;20.54;58.32;99452.69;5000999;28;20443;-78
2022/10/15 10:16:03;;;;;;;21.90;17.97;;;;;;;19.26;62.69;99449.31;5004533;28;20471;-79
2022/10/15 10:18:31;;;;;;;22.30;17.93;;;;;;;18.77;64.77;99451.59;5000477;28;20485;-79
2022/10/15 10:21:00;;;;;;;23.03;17.90;;;;;;;18.54;66.60;99457.50;5000873;28;20479;-79
2022/10/15 10:23:34;;;;;;;21.23;17.60;;;;;;;19.04;65.04;99451.50;5001999;28;20448;-79
2022/10/15 10:26:03;;;;;;;19.47;16.87;;;;;;;18.85;65.68;99468.69;5003943;28;20545;-79
2022/10/15 10:28:33;;;;;;;19.13;16.03;;;;;;;18.92;64.46;99466.78;5003228;28;20496;-79
2022/10/15 10:31:03;;;;;;;19.77;15.50;;;;;;;19.14;63.99;99467.31;4999344;28;20540;-78
2022/10/15 10:33:32;;;;;;;22.87;16.10;;;;;;;19.53;63.31;99473.56;5004198;28;20541;-78
2022/10/15 10:36:00;;;;;;;16.60;13.23;;;;;;;18.87;64.92;99472.00;5020354;28;20479;-80
2022/10/15 10:38:30;;;;;;;20.23;15.03;;;;;;;18.43;65.27;99453.53;5001175;28;20463;-80
2022/10/15 10:41:04;;;;;;;18.60;14.47;;;;;;;18.80;64.52;99474.69;5007968;28;20542;-78
2022/10/15 10:43:32;;;;;;;16.40;14.67;;;;;;;18.50;66.33;99471.66;5007954;28;20475;-80
2022/10/15 10:46:01;;;;;;;16.33;13.20;;;;;;;18.57;65.83;99469.75;5004056;28;20467;-81
2022/10/15 10:48:29;;;;;;;17.27;13.27;;;;;;;18.51;66.17;99459.81;5004963;28;20524;-81
2022/10/15 10:51:05;;;;;;;14.90;12.37;;;;;;;18.76;65.37;99466.16;5001145;28;20545;-81
2022/10/15 10:53:31;;;;;;;18.37;13.10;;;;;;;19.91;62.19;99442.84;5005253;28;20443;-80
2022/10/15 10:55:58;;;;;;;17.30;13.00;;;;;;;21.87;54.46;99447.38;5008304;28;20502;-81
2022/10/15 10:58:28;;;;;;;13.00;11.50;;;;;;;23.05;52.28;99436.44;5005053;28;20585;-80
2022/10/15 11:00:57;;;;;;;13.50;11.50;;;;;;;24.91;45.67;99432.88;4997873;28;20482;-80
2022/10/15 11:03:33;;;;;;;11.97;10.03;;;;;;;24.37;46.66;99439.00;5010230;28;20455;-80
2022/10/15 11:06:26;;;;;;;13.13;9.60;;;;;;;23.43;48.14;99412.31;5004662;28;20509;-81
2022/10/15 11:09:02;;;;;;;10.00;9.00;;;;;;;24.46;46.46;99416.66;5012708;28;20492;-81
2022/10/15 11:11:35;;;;;;;10.33;9.30;;;;;;;24.79;46.23;99400.19;5024263;28;20502;-82
2022/10/15 11:14:08;;;;;;;7.87;7.10;;;;;;;24.34;46.04;99394.91;5009175;28;20467;-81
2022/10/15 11:16:41;;;;;;;10.63;9.53;;;;;;;23.04;48.98;99398.50;5003591;28;20499;-81
2022/10/15 11:19:20;;;;;;;9.30;7.40;;;;;;;22.06;50.82;99401.03;5004224;28;20498;-80
2022/10/15 11:21:59;;;;;;;8.57;7.50;;;;;;;21.80;52.96;99405.84;5004834;28;20482;-80